Time;durP1;ratioP1;P1;durP2;ratioP2;P2;SDS_P1;SDS_P2;PMS_P1;PMS_P2;Temp;Humidity;BMP_temperature;BMP_pressure;BME280_temperature;BME280_humidity;BME280_pressure;Samples;Min_cycle;Max_cycle;Signal;HPM_P1;HPM_P2
2022/01/21 00:00:59;;;;;;;1.70;0.20;;;0.40;99.90;;;;;;6307061;22;20009;-78
2022/01/21 00:03:25;;;;;;;5.30;0.52;;;0.40;99.90;;;;;;6312744;22;20065;-79
2022/01/21 00:05:51;;;;;;;5.85;0.20;;;0.50;99.90;;;;;;6309708;22;19999;-72
2022/01/21 00:08:17;;;;;;;11.48;0.82;;;0.50;99.90;;;;;;6308076;22;20003;-73
2022/01/21 00:10:42;;;;;;;7.10;0.10;;;0.50;99.90;;;;;;6307332;22;20038;-72
2022/01/21 00:13:18;;;;;;;6.63;0.28;;;0.60;99.90;;;;;;6309145;22;20045;-73
2022/01/21 00:15:43;;;;;;;8.50;0.30;;;0.60;99.90;;;;;;6310423;22;20369;-79
2022/01/21 00:18:10;;;;;;;6.07;0.15;;;0.60;99.90;;;;;;6313359;22;19999;-79
2022/01/21 00:31:23;;;;;;;6.60;0.85;;;1.10;99.90;;;;;;6281380;22;20038;-78
2022/01/21 00:33:50;;;;;;;6.53;0.10;;;4.30;99.90;;;;;;6258569;22;20010;-79
2022/01/21 00:36:18;;;;;;;8.07;0.07;;;2.70;99.90;;;;;;6257700;22;20020;-79
2022/01/21 00:38:45;;;;;;;11.25;0.30;;;1.10;99.90;;;;;;6255665;22;20004;-79
2022/01/21 00:41:16;;;;;;;10.45;0.20;;;1.10;99.90;;;;;;6280649;22;20387;-79
2022/01/21 00:43:45;;;;;;;7.65;0.00;;;1.10;99.90;;;;;;6228793;22;20011;-79
2022/01/21 00:46:12;;;;;;;11.48;0.68;;;3.40;99.90;;;;;;6253279;22;20000;-79
2022/01/21 00:48:38;;;;;;;3.92;0.25;;;-0.40;99.90;;;;;;6280406;22;20011;-79
2022/01/21 00:51:04;;;;;;;3.22;0.10;;;-0.10;99.90;;;;;;6280465;22;19995;-79
2022/01/21 00:53:30;;;;;;;5.28;0.10;;;-1.00;99.90;;;;;;6279807;22;20049;-79
2022/01/21 00:55:55;;;;;;;11.68;0.60;;;1.10;99.90;;;;;;6278948;22;20000;-79
2022/01/21 00:58:21;;;;;;;10.02;0.22;;;1.50;99.90;;;;;;6280289;22;20049;-79
2022/01/21 01:00:46;;;;;;;5.03;1.00;;;2.10;99.90;;;;;;6252394;22;20008;-79
2022/01/21 01:03:14;;;;;;;8.63;0.68;;;-0.10;99.90;;;;;;6252735;22;20466;-79
2022/01/21 01:05:40;;;;;;;6.72;0.70;;;-0.20;99.90;;;;;;6279750;22;20030;-79
2022/01/21 01:08:05;;;;;;;5.35;0.15;;;1.00;99.90;;;;;;6251891;22;20008;-79
2022/01/21 01:21:37;;;;;;;6.13;0.10;;;-0.20;99.90;;;;;;6278270;22;20022;-78
2022/01/21 01:29:14;;;;;;;9.43;0.40;;;2.80;99.90;;;;;;6279967;22;20153;-78
2022/01/21 01:31:40;;;;;;;5.03;0.65;;;-0.30;99.90;;;;;;6252046;22;19995;-78
2022/01/21 01:34:06;;;;;;;5.00;0.38;;;0.30;99.90;;;;;;6251734;22;20304;-79
2022/01/21 01:36:32;;;;;;;6.97;0.30;;;0.00;99.90;;;;;;6251886;22;20086;-78
2022/01/21 01:39:10;;;;;;;4.80;0.40;;;1.60;99.90;;;;;;6279205;22;20057;-78
2022/01/21 01:41:40;;;;;;;8.25;0.17;;;3.30;99.90;;;;;;6279483;22;20330;-78
2022/01/21 01:52:01;;;;;;;8.73;0.15;;;-0.50;99.90;;;;;;6279633;22;20087;-78
2022/01/21 01:54:29;;;;;;;6.63;0.00;;;-0.20;99.90;;;;;;6251760;22;20114;-78
2022/01/21 01:56:57;;;;;;;10.53;0.30;;;0.10;99.90;;;;;;6278938;22;20004;-78
2022/01/21 01:59:24;;;;;;;4.25;0.10;;;1.50;99.90;;;;;;6278733;22;20030;-78
2022/01/21 02:01:55;;;;;;;5.03;0.20;;;-1.10;99.90;;;;;;6279210;22;20003;-78
2022/01/21 02:04:21;;;;;;;7.32;0.00;;;0.00;99.90;;;;;;6251815;22;20410;-79
2022/01/21 02:06:48;;;;;;;15.82;1.33;;;-0.10;99.90;;;;;;6251612;22;20091;-78
2022/01/21 02:09:14;;;;;;;5.03;0.00;;;1.40;99.90;;;;;;6251568;22;20007;-78
2022/01/21 02:11:40;;;;;;;5.82;0.28;;;0.90;99.90;;;;;;6278502;22;20004;-78
2022/01/21 02:14:09;;;;;;;7.45;0.10;;;2.90;99.90;;;;;;6252282;22;20083;-78
2022/01/21 02:17:07;;;;;;;2.67;0.00;;;2.60;99.90;;;;;;6251470;22;20331;-78
2022/01/21 02:22:21;;;;;;;13.93;0.30;;;0.90;99.90;;;;;;6279102;22;20058;-78
2022/01/21 02:24:57;;;;;;;11.60;0.10;;;-0.20;99.90;;;;;;6278248;22;20027;-79
2022/01/21 02:27:23;;;;;;;6.45;0.03;;;0.90;99.90;;;;;;6278910;22;19999;-78
2022/01/21 02:29:59;;;;;;;6.00;0.00;;;0.70;99.90;;;;;;6278651;22;20027;-78
2022/01/21 02:32:24;;;;;;;6.53;0.25;;;0.00;99.90;;;;;;6250888;22;19995;-78
2022/01/21 02:34:50;;;;;;;11.93;0.35;;;0.10;99.90;;;;;;6278447;22;20006;-78
2022/01/21 02:37:18;;;;;;;5.60;0.73;;;-0.60;99.90;;;;;;6251194;22;20453;-78
2022/01/21 02:39:45;;;;;;;4.22;0.08;;;0.10;99.90;;;;;;6278727;22;20011;-78
2022/01/21 02:42:14;;;;;;;8.52;0.08;;;-0.10;99.90;;;;;;6251402;22;20008;-79
2022/01/21 02:44:40;;;;;;;3.90;0.03;;;0.60;99.90;;;;;;6251574;22;20008;-78
2022/01/21 02:47:07;;;;;;;4.50;0.73;;;-0.70;99.90;;;;;;6250859;22;20010;-78
2022/01/21 02:49:34;;;;;;;8.20;0.38;;;3.10;99.90;;;;;;6278434;22;20070;-78
2022/01/21 02:52:01;;;;;;;12.18;0.57;;;-0.20;99.90;;;;;;6251032;22;20010;-78
2022/01/21 02:54:34;;;;;;;2.60;0.10;;;-0.70;99.90;;;;;;6278615;22;20000;-78
2022/01/21 02:57:00;;;;;;;4.68;0.00;;;0.00;99.90;;;;;;6251240;22;20004;-78
2022/01/21 02:59:26;;;;;;;13.70;0.20;;;-0.30;99.90;;;;;;6278100;22;20011;-78
2022/01/21 03:01:52;;;;;;;4.35;0.20;;;-0.30;99.90;;;;;;6251490;22;20008;-79
2022/01/21 03:04:29;;;;;;;8.40;0.55;;;3.20;99.90;;;;;;6278742;22;20324;-78
2022/01/21 03:06:55;;;;;;;4.38;0.20;;;0.00;99.90;;;;;;6278099;22;20000;-78
2022/01/21 03:09:20;;;;;;;5.03;0.05;;;3.30;99.90;;;;;;6278639;22;20053;-78
2022/01/21 03:11:46;;;;;;;4.63;0.20;;;0.30;99.90;;;;;;6250479;22;20082;-78
2022/01/21 03:14:11;;;;;;;7.90;0.20;;;0.40;99.90;;;;;;6277821;22;20065;-78
2022/01/21 03:16:37;;;;;;;4.15;0.00;;;0.40;99.90;;;;;;6278779;22;20001;-78
2022/01/21 03:19:02;;;;;;;4.57;0.30;;;0.40;99.90;;;;;;6250898;22;20439;-79
2022/01/21 03:21:28;;;;;;;2.25;0.00;;;0.40;99.90;;;;;;6277732;22;20012;-79
2022/01/21 03:23:55;;;;;;;4.72;0.00;;;0.40;99.90;;;;;;6251032;22;20010;-79
2022/01/21 03:26:23;;;;;;;2.95;0.15;;;0.40;99.90;;;;;;6251135;22;20006;-78
2022/01/21 03:28:51;;;;;;;2.13;0.00;;;0.50;99.90;;;;;;6250644;22;20069;-79
2022/01/21 03:31:17;;;;;;;4.20;0.43;;;0.50;99.90;;;;;;6251112;22;20004;-78
2022/01/21 03:33:44;;;;;;;2.90;0.00;;;0.40;99.90;;;;;;6278316;22;20000;-78
2022/01/21 03:36:10;;;;;;;2.13;0.00;;;0.40;99.90;;;;;;6278732;22;20008;-78
2022/01/21 03:38:36;;;;;;;5.03;0.00;;;0.30;99.90;;;;;;6277905;22;20027;-79
2022/01/21 03:41:03;;;;;;;3.60;0.57;;;0.30;99.90;;;;;;6278083;22;19999;-78
2022/01/21 03:43:28;;;;;;;4.43;0.10;;;0.30;99.90;;;;;;6278424;22;20014;-79
2022/01/21 03:45:54;;;;;;;4.28;0.52;;;0.20;99.90;;;;;;6277974;22;20382;-78
2022/01/21 03:48:20;;;;;;;3.28;0.00;;;0.20;99.90;;;;;;6250682;22;20431;-78
2022/01/21 03:50:46;;;;;;;5.63;0.15;;;0.20;99.90;;;;;;6277284;22;19996;-78
2022/01/21 03:53:12;;;;;;;6.15;0.38;;;0.20;99.90;;;;;;6278173;22;20312;-78
2022/01/21 03:55:39;;;;;;;3.35;0.00;;;0.20;99.90;;;;;;6250845;22;19999;-78
2022/01/21 03:58:07;;;;;;;3.00;0.00;;;0.20;99.90;;;;;;6278327;22;20004;-78
2022/01/21 04:00:37;;;;;;;5.07;0.20;;;0.20;99.90;;;;;;6251142;22;20011;-78
2022/01/21 04:03:03;;;;;;;4.50;0.85;;;0.20;99.90;;;;;;6250941;22;20320;-78
2022/01/21 04:05:31;;;;;;;8.93;0.10;;;0.20;99.90;;;;;;6250820;22;20207;-78
2022/01/21 04:07:57;;;;;;;1.80;0.00;;;0.20;99.90;;;;;;6250849;22;20007;-78
2022/01/21 04:10:23;;;;;;;6.60;1.65;;;0.20;99.90;;;;;;6277865;22;20000;-78
2022/01/21 04:12:49;;;;;;;4.70;0.28;;;0.20;99.90;;;;;;6278164;22;20549;-78
2022/01/21 04:15:15;;;;;;;3.45;0.00;;;0.20;99.90;;;;;;6250953;22;20006;-78
2022/01/21 04:17:41;;;;;;;3.50;0.00;;;0.30;99.90;;;;;;6250581;22;20000;-78
2022/01/21 04:20:09;;;;;;;9.30;0.03;;;0.30;99.90;;;;;;6277821;22;20135;-78
2022/01/21 04:22:36;;;;;;;2.15;0.25;;;0.30;99.90;;;;;;6250395;22;20064;-78
2022/01/21 04:25:02;;;;;;;4.38;0.10;;;0.40;99.90;;;;;;6250722;22;20011;-78
2022/01/21 04:27:27;;;;;;;6.25;0.20;;;0.50;99.90;;;;;;6277477;22;19999;-78
2022/01/21 04:29:53;;;;;;;6.80;0.00;;;0.50;99.90;;;;;;6250237;22;20446;-78
2022/01/21 04:32:18;;;;;;;2.00;0.10;;;0.50;99.90;;;;;;6278273;22;20050;-78
2022/01/21 04:34:44;;;;;;;10.20;0.47;;;0.50;99.90;;;;;;6277797;22;20461;-78
2022/01/21 04:37:12;;;;;;;3.72;0.00;;;0.60;99.90;;;;;;6250894;22;20069;-77
2022/01/21 04:39:45;;;;;;;5.47;0.00;;;0.60;99.90;;;;;;6277681;22;20003;-78
2022/01/21 04:47:35;;;;;;;5.10;0.20;;;0.50;99.90;;;;;;6278424;22;20015;-79
2022/01/21 04:50:01;;;;;;;5.45;0.20;;;0.50;99.90;;;;;;6250504;22;20026;-79
2022/01/21 04:52:27;;;;;;;10.65;0.70;;;0.40;99.90;;;;;;6277902;22;20008;-79
2022/01/21 04:54:53;;;;;;;4.70;0.00;;;0.50;99.90;;;;;;6277610;22;20000;-79
2022/01/21 04:57:19;;;;;;;6.47;0.10;;;0.50;99.90;;;;;;6279680;22;20153;-79
2022/01/21 04:59:46;;;;;;;6.65;0.20;;;0.50;99.90;;;;;;6279697;22;20007;-79
2022/01/21 05:02:12;;;;;;;6.88;0.00;;;0.50;99.90;;;;;;6280468;22;19999;-79
2022/01/21 05:04:38;;;;;;;3.33;0.10;;;0.50;99.90;;;;;;6280305;22;20006;-79
2022/01/21 05:07:06;;;;;;;2.03;0.22;;;0.60;99.90;;;;;;6280112;22;20000;-79
2022/01/21 05:09:34;;;;;;;2.50;0.00;;;0.50;99.90;;;;;;6280006;22;20056;-79
2022/01/21 05:12:06;;;;;;;2.17;0.00;;;0.60;99.90;;;;;;6279698;22;20000;-79
2022/01/21 05:15:07;;;;;;;8.02;0.70;;;0.70;99.90;;;;;;6253358;22;20006;-79
2022/01/21 05:17:40;;;;;;;5.47;0.55;;;-2.20;99.90;;;;;;6280192;22;20034;-79
2022/01/21 05:20:06;;;;;;;4.38;0.52;;;0.70;99.90;;;;;;6252821;22;20004;-79
2022/01/21 05:22:32;;;;;;;0.65;0.00;;;0.70;99.90;;;;;;6279805;22;20029;-79
2022/01/21 05:24:57;;;;;;;4.15;0.03;;;0.70;99.90;;;;;;6255771;22;20007;-80
2022/01/21 05:27:23;;;;;;;3.15;0.55;;;0.60;99.90;;;;;;6259234;22;20004;-80
2022/01/21 05:29:48;;;;;;;3.20;0.45;;;0.70;99.90;;;;;;6254435;22;20004;-80
2022/01/21 05:32:14;;;;;;;2.75;0.10;;;0.70;99.90;;;;;;6281229;22;20054;-80
2022/01/21 05:34:40;;;;;;;5.35;1.10;;;0.70;99.90;;;;;;6282100;22;20000;-81
2022/01/21 05:37:05;;;;;;;1.13;0.52;;;0.70;99.90;;;;;;6283436;22;20051;-81
2022/01/21 05:39:31;;;;;;;5.72;0.15;;;0.80;99.90;;;;;;6284518;22;19999;-81
2022/01/21 05:41:56;;;;;;;8.77;0.38;;;0.80;99.90;;;;;;6256704;22;20035;-81
2022/01/21 05:46:59;;;;;;;3.95;0.15;;;3.40;99.90;;;;;;6295017;22;20007;-81
2022/01/21 05:49:27;;;;;;;3.58;0.13;;;0.90;99.90;;;;;;6288541;22;19999;-80
2022/01/21 05:52:02;;;;;;;6.97;0.27;;;0.90;99.90;;;;;;6264254;22;20027;-80
2022/01/21 05:54:27;;;;;;;6.35;0.00;;;0.90;99.90;;;;;;6262939;22;20231;-80
2022/01/21 05:56:53;;;;;;;6.80;0.50;;;0.80;99.90;;;;;;6263717;22;20034;-80
2022/01/21 05:59:19;;;;;;;9.20;0.30;;;0.80;99.90;;;;;;6262965;22;20004;-80
2022/01/21 06:01:45;;;;;;;5.88;0.20;;;0.80;99.90;;;;;;6266265;22;20004;-80
2022/01/21 06:04:11;;;;;;;6.45;0.25;;;0.80;99.90;;;;;;6273701;22;20022;-81
2022/01/21 06:06:37;;;;;;;6.00;0.10;;;4.30;99.90;;;;;;6273881;22;19984;-81
2022/01/21 06:09:04;;;;;;;1.73;0.00;;;3.20;99.90;;;;;;6300627;22;20003;-81
2022/01/21 06:11:30;;;;;;;4.85;0.28;;;0.60;99.90;;;;;;6289572;22;20003;-80
2022/01/21 06:13:55;;;;;;;5.90;0.40;;;1.90;99.90;;;;;;6251493;22;20137;-80
2022/01/21 06:16:21;;;;;;;5.32;0.10;;;0.90;99.90;;;;;;6279495;22;20003;-80
2022/01/21 06:18:46;;;;;;;5.30;0.00;;;0.90;99.90;;;;;;6252038;22;20008;-80
2022/01/21 06:21:15;;;;;;;3.55;0.40;;;0.90;99.90;;;;;;6279723;22;20436;-80
2022/01/21 06:23:41;;;;;;;2.88;0.00;;;0.90;99.90;;;;;;6253669;22;20039;-80
2022/01/21 06:26:07;;;;;;;3.85;0.10;;;0.90;99.90;;;;;;6279717;22;20004;-78
2022/01/21 06:28:33;;;;;;;6.13;0.28;;;0.80;99.90;;;;;;6253193;22;19999;-79
2022/01/21 06:30:59;;;;;;;4.47;0.10;;;0.90;99.90;;;;;;6252850;22;20007;-74
2022/01/21 06:33:24;;;;;;;10.00;0.30;;;0.90;99.90;;;;;;6278681;22;20000;-74
2022/01/21 06:35:51;;;;;;;1.30;0.43;;;1.00;99.90;;;;;;6278698;22;20010;-74
2022/01/21 06:38:17;;;;;;;7.65;0.30;;;1.00;99.90;;;;;;6279085;22;20002;-74
2022/01/21 06:40:43;;;;;;;1.23;0.00;;;1.00;99.90;;;;;;6278640;22;20003;-74
2022/01/21 06:43:09;;;;;;;7.00;0.20;;;1.10;99.90;;;;;;6278157;22;20335;-74
2022/01/21 06:45:34;;;;;;;3.42;0.20;;;1.20;99.90;;;;;;6251263;22;20003;-73
2022/01/21 06:48:02;;;;;;;4.30;0.30;;;1.10;99.90;;;;;;6251691;22;20019;-74
2022/01/21 06:50:29;;;;;;;5.05;0.15;;;1.20;99.90;;;;;;6250874;22;20004;-76
2022/01/21 06:52:55;;;;;;;3.72;0.17;;;1.20;99.90;;;;;;6251615;22;20381;-73
2022/01/21 06:55:20;;;;;;;4.97;0.43;;;1.20;99.90;;;;;;6279067;22;20000;-74
2022/01/21 06:57:46;;;;;;;6.63;0.25;;;1.20;99.90;;;;;;6297991;22;20412;-78
2022/01/21 07:00:18;;;;;;;4.28;0.10;;;1.20;99.90;;;;;;6253926;22;20000;-75
2022/01/21 07:02:44;;;;;;;5.10;0.15;;;1.10;99.90;;;;;;6278698;22;20367;-75
2022/01/21 07:05:09;;;;;;;6.07;0.30;;;1.20;99.90;;;;;;6278748;22;20003;-76
2022/01/21 07:07:35;;;;;;;2.45;0.10;;;1.10;99.90;;;;;;6251705;22;20010;-73
2022/01/21 07:10:04;;;;;;;7.78;0.38;;;1.10;99.90;;;;;;6252352;22;19996;-73
2022/01/21 07:12:29;;;;;;;2.70;0.20;;;1.10;99.90;;;;;;6279626;22;20006;-73
2022/01/21 07:14:55;;;;;;;4.90;0.20;;;1.10;99.90;;;;;;6278752;22;19995;-73
2022/01/21 07:17:20;;;;;;;8.07;0.10;;;1.00;99.90;;;;;;6251471;22;20461;-73
2022/01/21 07:19:47;;;;;;;5.20;0.28;;;1.00;99.90;;;;;;6278252;22;20010;-73
2022/01/21 07:22:13;;;;;;;7.00;0.47;;;1.00;99.90;;;;;;6250976;22;20007;-73
2022/01/21 07:24:39;;;;;;;9.77;0.45;;;1.00;99.90;;;;;;6278956;22;20011;-73
2022/01/21 07:27:04;;;;;;;9.98;0.40;;;1.00;99.90;;;;;;6279263;22;20308;-73
2022/01/21 07:29:30;;;;;;;3.78;0.70;;;1.00;99.90;;;;;;6279071;22;20000;-73
2022/01/21 07:31:56;;;;;;;4.68;0.30;;;0.90;99.90;;;;;;6279392;22;20000;-73
2022/01/21 07:34:23;;;;;;;3.63;0.20;;;0.90;99.90;;;;;;6251640;22;20008;-73
2022/01/21 07:36:48;;;;;;;7.30;0.55;;;0.80;99.90;;;;;;6279141;22;20427;-73
2022/01/21 07:39:14;;;;;;;4.55;0.50;;;0.80;99.90;;;;;;6278508;22;20007;-73
2022/01/21 07:41:39;;;;;;;8.88;0.38;;;0.80;99.90;;;;;;6251375;22;20374;-73
2022/01/21 07:44:05;;;;;;;6.38;0.22;;;0.80;99.90;;;;;;6279402;22;20007;-73
2022/01/21 07:46:31;;;;;;;5.45;0.10;;;0.80;99.90;;;;;;6252582;22;20032;-73
2022/01/21 07:48:59;;;;;;;6.05;0.17;;;0.90;99.90;;;;;;6252293;22;20051;-73
2022/01/21 07:51:25;;;;;;;11.35;0.65;;;0.90;99.90;;;;;;6252088;22;19999;-73
2022/01/21 07:53:51;;;;;;;5.32;0.35;;;0.80;99.90;;;;;;6278088;22;20020;-73
2022/01/21 07:56:16;;;;;;;14.15;1.00;;;0.80;99.90;;;;;;6250942;22;20074;-73
2022/01/21 07:58:42;;;;;;;8.30;0.22;;;0.80;99.90;;;;;;6279560;22;19999;-73
2022/01/21 08:01:08;;;;;;;3.47;0.20;;;0.80;99.90;;;;;;6279203;22;20000;-73
2022/01/21 08:03:33;;;;;;;8.02;0.40;;;0.90;99.90;;;;;;6278537;22;20339;-73
2022/01/21 08:05:59;;;;;;;4.22;0.50;;;1.00;99.90;;;;;;6251659;22;20003;-74
2022/01/21 08:08:26;;;;;;;7.25;0.30;;;1.00;99.90;;;;;;6279530;22;19996;-73
2022/01/21 08:10:52;;;;;;;3.80;0.57;;;1.10;99.90;;;;;;6251332;22;20049;-73
2022/01/21 08:13:18;;;;;;;2.90;0.28;;;1.10;99.90;;;;;;6279086;22;20000;-74
2022/01/21 08:15:44;;;;;;;5.82;0.10;;;1.20;99.90;;;;;;6278039;22;20370;-74
2022/01/21 08:18:09;;;;;;;4.20;0.10;;;1.20;99.90;;;;;;6251976;22;20007;-73
2022/01/21 08:20:35;;;;;;;9.25;0.28;;;1.20;99.90;;;;;;6278954;22;20308;-73
2022/01/21 08:23:01;;;;;;;5.30;0.08;;;1.30;99.90;;;;;;6251430;22;20096;-73
2022/01/21 08:25:27;;;;;;;6.30;0.22;;;1.40;99.90;;;;;;6277972;22;20010;-73
2022/01/21 08:27:53;;;;;;;3.40;0.10;;;1.40;99.90;;;;;;6251120;22;20003;-73
2022/01/21 08:30:18;;;;;;;5.10;0.77;;;1.40;99.90;;;;;;6278761;22;20534;-73
2022/01/21 08:32:44;;;;;;;2.00;0.25;;;1.50;99.90;;;;;;6252914;22;20000;-73
2022/01/21 08:35:11;;;;;;;4.88;0.20;;;1.50;99.90;;;;;;6280244;22;19996;-73
2022/01/21 08:37:36;;;;;;;2.88;0.35;;;1.50;99.90;;;;;;6253036;22;20003;-73
2022/01/21 08:40:04;;;;;;;14.60;1.17;;;1.50;99.90;;;;;;6280253;22;20427;-73
2022/01/21 08:42:30;;;;;;;7.05;0.88;;;1.60;99.90;;;;;;6280829;22;20377;-73
2022/01/21 08:44:55;;;;;;;7.35;0.40;;;1.70;99.90;;;;;;6280590;22;20007;-73
2022/01/21 08:47:22;;;;;;;9.15;0.90;;;1.80;99.90;;;;;;6253106;22;20007;-73
2022/01/21 08:49:49;;;;;;;7.00;0.70;;;2.00;99.90;;;;;;6280197;22;20000;-73
2022/01/21 08:52:20;;;;;;;9.45;0.45;;;2.10;99.90;;;;;;6253656;22;20000;-74
2022/01/21 08:54:47;;;;;;;4.35;0.55;;;2.20;99.90;;;;;;6279510;22;20331;-74
2022/01/21 08:57:14;;;;;;;10.02;0.52;;;2.50;99.90;;;;;;6280168;22;20010;-75
2022/01/21 08:59:40;;;;;;;9.52;0.30;;;2.60;99.90;;;;;;6279759;22;20010;-75
2022/01/21 09:02:05;;;;;;;14.73;0.52;;;2.80;99.90;;;;;;6280138;22;20003;-75
2022/01/21 09:04:32;;;;;;;5.95;0.85;;;3.00;99.90;;;;;;6280439;22;20006;-75
2022/01/21 09:07:01;;;;;;;7.28;0.60;;;3.20;99.90;;;;;;6279679;22;20076;-75
2022/01/21 09:09:28;;;;;;;;;;;3.30;99.90;;;;;;6252733;22;20014;-74
2022/01/21 09:11:59;;;;;;;8.40;0.20;;;3.40;99.90;;;;;;6278923;22;19899;-74
2022/01/21 09:14:28;;;;;;;10.57;1.10;;;3.60;99.90;;;;;;6279982;22;20007;-75
2022/01/21 09:16:56;;;;;;;5.05;0.35;;;3.60;99.90;;;;;;6279949;22;20450;-74
2022/01/21 09:19:22;;;;;;;10.98;0.50;;;3.60;99.90;;;;;;6252462;22;20012;-74
2022/01/21 09:21:51;;;;;;;13.20;0.43;;;3.60;99.90;;;;;;6279379;22;20350;-74
2022/01/21 09:24:18;;;;;;;5.93;0.25;;;3.60;99.90;;;;;;6280068;22;20007;-74
2022/01/21 09:26:45;;;;;;;6.10;0.10;;;3.60;99.90;;;;;;6280131;22;20007;-74
2022/01/21 09:29:11;;;;;;;7.97;0.50;;;3.70;99.90;;;;;;6280306;22;20478;-74
2022/01/21 09:31:37;;;;;;;8.88;0.47;;;3.80;99.90;;;;;;6280624;22;19997;-74
2022/01/21 09:34:05;;;;;;;5.90;0.20;;;3.90;99.90;;;;;;6252858;22;20000;-74
2022/01/21 09:36:31;;;;;;;3.65;0.43;;;4.00;99.90;;;;;;6278868;22;20021;-75
2022/01/21 09:38:57;;;;;;;10.63;0.50;;;4.00;99.90;;;;;;6251530;22;20023;-75
2022/01/21 09:41:24;;;;;;;2.00;0.03;;;4.20;99.90;;;;;;6251179;22;19999;-75
2022/01/21 09:43:53;;;;;;;8.85;0.10;;;4.20;99.90;;;;;;6277922;22;20027;-76
2022/01/21 09:46:32;;;;;;;7.55;0.40;;;4.20;99.90;;;;;;6279347;22;20086;-75
2022/01/21 09:49:19;;;;;;;9.50;0.73;;;4.30;99.90;;;;;;6278476;22;19996;-76
2022/01/21 09:51:46;;;;;;;10.98;0.68;;;4.40;99.90;;;;;;6251166;22;20000;-76
2022/01/21 09:54:13;;;;;;;14.27;0.57;;;4.40;99.90;;;;;;6278751;22;20419;-76
2022/01/21 09:56:41;;;;;;;9.23;0.57;;;4.50;99.90;;;;;;6252931;22;20004;-76
2022/01/21 09:59:08;;;;;;;9.48;0.88;;;4.60;99.90;;;;;;6278586;22;20324;-76
2022/01/21 10:01:34;;;;;;;8.18;0.85;;;4.60;99.90;;;;;;6278344;22;20035;-76
2022/01/21 10:04:00;;;;;;;9.02;0.20;;;4.60;99.90;;;;;;6278473;22;20289;-76
2022/01/21 10:06:28;;;;;;;10.70;1.02;;;4.60;99.90;;;;;;6278501;22;20335;-76
2022/01/21 10:08:57;;;;;;;9.38;0.20;;;4.60;99.90;;;;;;6278452;22;20003;-76
2022/01/21 10:11:24;;;;;;;12.18;0.47;;;4.60;99.90;;;;;;6278152;22;20041;-76
2022/01/21 10:13:51;;;;;;;7.93;0.47;;;4.70;99.90;;;;;;6250964;22;20335;-76
2022/01/21 10:16:17;;;;;;;11.40;0.88;;;4.80;99.90;;;;;;6251351;22;20030;-76
2022/01/21 10:19:07;;;;;;;14.55;1.85;;;5.00;99.90;;;;;;6250849;22;20000;-77
2022/01/21 10:21:39;;;;;;;8.13;0.32;;;5.10;99.90;;;;;;6277635;22;20320;-76
2022/01/21 10:24:10;;;;;;;5.55;0.15;;;5.10;99.90;;;;;;6250674;22;20010;-76
2022/01/21 10:26:46;;;;;;;11.75;0.70;;;5.20;99.90;;;;;;6278063;22;20427;-76
2022/01/21 10:29:13;;;;;;;10.15;0.50;;;5.30;99.90;;;;;;6278541;22;20000;-77
2022/01/21 10:32:00;;;;;;;18.35;0.57;;;5.40;99.90;;;;;;6277781;22;20023;-77
2022/01/21 10:34:44;;;;;;;14.32;0.80;;;5.40;99.90;;;;;;6277654;22;20335;-76
2022/01/21 10:37:24;;;;;;;13.65;1.40;;;5.50;99.90;;;;;;6250476;22;20008;-77
2022/01/21 10:40:05;;;;;;;7.47;0.77;;;5.50;99.90;;;;;;6250523;22;20034;-77
2022/01/21 10:42:31;;;;;;;8.70;1.27;;;5.70;99.90;;;;;;6278284;22;20322;-77
2022/01/21 10:44:59;;;;;;;9.10;0.57;;;5.90;99.90;;;;;;6250476;22;20034;-77
2022/01/21 10:47:30;;;;;;;10.05;1.02;;;6.00;99.90;;;;;;6277584;22;20000;-77
2022/01/21 10:50:11;;;;;;;8.00;0.30;;;6.10;99.90;;;;;;6277824;22;20327;-77
2022/01/21 10:52:42;;;;;;;9.13;0.93;;;6.20;99.90;;;;;;6250461;22;20045;-77
2022/01/21 10:55:25;;;;;;;9.23;1.08;;;6.30;99.90;;;;;;6277521;22;20000;-77
2022/01/21 10:58:12;;;;;;;12.52;0.55;;;6.30;99.90;;;;;;6278157;22;20000;-78
2022/01/21 11:00:56;;;;;;;4.32;0.20;;;6.30;99.90;;;;;;6277006;22;20378;-78
2022/01/21 11:03:22;;;;;;;12.05;0.20;;;6.30;99.90;;;;;;6277653;22;20011;-77
2022/01/21 11:05:49;;;;;;;5.95;0.22;;;6.30;99.90;;;;;;6250232;22;20350;-77
2022/01/21 11:08:15;;;;;;;5.15;0.68;;;6.30;99.90;;;;;;6277117;22;20003;-77
2022/01/21 11:10:51;;;;;;;10.23;0.30;;;6.30;99.90;;;;;;6277116;22;20003;-77
2022/01/21 11:13:19;;;;;;;4.22;0.85;;;6.40;99.90;;;;;;6250344;22;20538;-77
2022/01/21 11:15:55;;;;;;;13.70;0.45;;;6.40;99.90;;;;;;6277591;22;20047;-77
2022/01/21 11:18:22;;;;;;;10.88;0.75;;;6.40;99.90;;;;;;6277150;22;20439;-77
2022/01/21 11:20:53;;;;;;;3.72;0.20;;;6.50;99.90;;;;;;6249910;22;20007;-76
2022/01/21 11:23:21;;;;;;;3.72;0.10;;;6.50;99.90;;;;;;6250276;22;20078;-77
2022/01/21 11:25:56;;;;;;;5.90;0.20;;;6.60;99.90;;;;;;6256073;22;20000;-80
2022/01/21 11:28:23;;;;;;;4.38;0.38;;;6.60;99.90;;;;;;6284610;22;20003;-80
2022/01/21 11:30:50;;;;;;;11.68;0.38;;;6.60;99.90;;;;;;6283654;22;20077;-80
2022/01/21 11:33:16;;;;;;;6.53;0.93;;;6.60;99.90;;;;;;6256625;22;19999;-80
2022/01/21 11:35:42;;;;;;;9.18;0.85;;;6.60;99.90;;;;;;6283641;22;20126;-80
2022/01/21 11:38:11;;;;;;;4.50;0.10;;;6.60;99.90;;;;;;6283221;22;20004;-80
2022/01/21 11:40:37;;;;;;;5.13;0.10;;;6.70;99.90;;;;;;6282000;22;19999;-79
2022/01/21 11:43:06;;;;;;;6.85;0.10;;;6.70;99.90;;;;;;6281774;22;20075;-79
2022/01/21 11:46:03;;;;;;;3.80;0.32;;;6.80;99.90;;;;;;6283547;22;20006;-79
2022/01/21 11:50:49;;;;;;;8.32;0.20;;;6.80;99.90;;;;;;6283882;22;20059;-79
2022/01/21 11:53:35;;;;;;;10.57;0.57;;;6.80;99.90;;;;;;6283324;22;20006;-79
2022/01/21 11:56:00;;;;;;;6.40;0.13;;;6.90;99.90;;;;;;6283185;22;20004;-79
2022/01/21 11:58:26;;;;;;;2.65;0.10;;;7.10;99.90;;;;;;6282761;22;20010;-79
2022/01/21 12:00:52;;;;;;;8.48;0.57;;;7.20;99.90;;;;;;6256261;22;20011;-79
2022/01/21 12:03:21;;;;;;;3.88;0.25;;;7.40;99.90;;;;;;6282465;22;20010;-79
2022/01/21 12:05:47;;;;;;;6.25;0.10;;;7.50;99.90;;;;;;6283169;22;20004;-79
2022/01/21 12:08:13;;;;;;;10.25;0.15;;;7.50;99.90;;;;;;6256257;22;20054;-79
2022/01/21 12:10:46;;;;;;;8.68;1.13;;;7.40;99.90;;;;;;6255347;22;20078;-79
2022/01/21 12:13:19;;;;;;;8.57;0.20;;;7.50;99.90;;;;;;6255637;22;20000;-79
2022/01/21 12:16:08;;;;;;;4.82;0.40;;;7.50;99.90;;;;;;6256497;22;20403;-79
2022/01/21 12:19:08;;;;;;;8.95;0.15;;;7.40;99.90;;;;;;6255479;22;20000;-80
2022/01/21 12:21:41;;;;;;;9.98;0.80;;;7.30;99.90;;;;;;6254570;22;20007;-79
2022/01/21 12:24:08;;;;;;;11.25;0.30;;;7.20;99.90;;;;;;6282373;22;20014;-80
2022/01/21 12:26:34;;;;;;;6.70;0.55;;;7.20;99.90;;;;;;6282905;22;20000;-80
2022/01/21 12:29:00;;;;;;;8.88;0.10;;;7.10;99.90;;;;;;6252359;22;20072;-80
2022/01/21 12:31:54;;;;;;;3.55;0.00;;;7.10;99.90;;;;;;6252938;22;20012;-79
2022/01/21 12:34:20;;;;;;;11.07;0.90;;;7.10;99.90;;;;;;6255117;22;20007;-80
2022/01/21 12:37:00;;;;;;;15.05;0.22;;;7.10;99.90;;;;;;6282925;22;20003;-80
2022/01/21 12:39:37;;;;;;;5.10;0.20;;;7.00;99.90;;;;;;6254056;22;20439;-80
2022/01/21 12:42:21;;;;;;;6.50;1.02;;;7.00;99.90;;;;;;6282445;22;20368;-80
2022/01/21 12:44:48;;;;;;;9.38;0.55;;;6.90;99.90;;;;;;6255201;22;20023;-79
2022/01/21 12:47:40;;;;;;;4.18;0.38;;;6.90;99.90;;;;;;6255163;22;20007;-79
2022/01/21 12:50:30;;;;;;;7.72;0.30;;;6.80;99.90;;;;;;6283042;22;20000;-79
2022/01/21 12:58:21;;;;;;;;;;;6.70;99.90;;;;;;6283338;22;20014;-79
2022/01/21 13:00:47;;;;;;;6.32;0.75;;;6.70;99.90;;;;;;6255911;22;19949;-80
2022/01/21 13:03:25;;;;;;;7.00;0.80;;;6.70;99.90;;;;;;6283309;22;20087;-80
2022/01/21 13:06:17;;;;;;;12.50;0.43;;;6.70;99.90;;;;;;6283153;22;20046;-79
2022/01/21 13:09:06;;;;;;;6.90;0.00;;;6.90;99.90;;;;;;6265803;22;20061;-80
2022/01/21 13:11:34;;;;;;;14.13;0.85;;;6.90;99.90;;;;;;6283663;22;20006;-80
2022/01/21 13:17:14;;;;;;;9.98;0.73;;;7.00;99.90;;;;;;6200016;22;20512;-80
2022/01/21 13:19:44;;;;;;;6.90;0.98;;;7.00;99.90;;;;;;6284435;22;20010;-80
2022/01/21 13:22:29;;;;;;;6.13;0.30;;;7.10;99.90;;;;;;6284595;22;20011;-80
2022/01/21 13:25:09;;;;;;;6.60;0.55;;;7.00;99.90;;;;;;6284669;22;20022;-80
2022/01/21 13:27:47;;;;;;;13.00;0.77;;;7.00;99.90;;;;;;6284858;22;20046;-79
2022/01/21 13:30:16;;;;;;;8.27;0.00;;;6.90;99.90;;;;;;6256494;22;20000;-79
2022/01/21 13:32:43;;;;;;;12.65;0.80;;;6.90;99.90;;;;;;6256622;22;20000;-79
2022/01/21 13:35:18;;;;;;;5.88;0.63;;;6.90;99.90;;;;;;6257235;22;20053;-80
2022/01/21 13:38:21;;;;;;;14.68;0.50;;;6.80;99.90;;;;;;6284059;22;20403;-79
2022/01/21 13:40:53;;;;;;;8.65;0.03;;;6.80;99.90;;;;;;6160134;23;20013;-79
2022/01/21 13:43:21;;;;;;;6.18;0.28;;;6.70;99.90;;;;;;6265448;22;20004;-79
2022/01/21 13:46:04;;;;;;;3.10;0.17;;;6.80;99.90;;;;;;6257161;22;20053;-79
2022/01/21 13:48:32;;;;;;;6.03;0.90;;;6.80;99.90;;;;;;6282087;22;20010;-79
2022/01/21 13:51:01;;;;;;;7.68;0.17;;;6.80;99.90;;;;;;6256880;22;20014;-79
2022/01/21 13:53:26;;;;;;;7.43;0.30;;;6.80;99.90;;;;;;6284684;22;20090;-79
2022/01/21 13:55:55;;;;;;;14.02;0.88;;;6.80;99.90;;;;;;6257268;22;19999;-79
2022/01/21 13:58:26;;;;;;;5.65;0.22;;;6.80;99.90;;;;;;6257589;22;20035;-79
2022/01/21 14:00:56;;;;;;;6.35;0.00;;;6.80;99.90;;;;;;6257069;22;20010;-79